Private Wetterstation Wechselburg
Wetterdaten: Donnerstag, 26.06.2014
Datum Zeit Temp. +2m Bodentemp. Temp.+5cm Temp. Wind Windchill X Diff Temp. Feuchte +2m Feuchte +5cm Sonnenschein Luftdruck Regen Wind Richtung Richtung Sonnenschein UV Taupunkt Windchill Windben
26.06.2014 00:00 9,9 C 24,7 C 11,3 C 10,3 C 10,3 C 0,4 C 90 % 94 % 0 % 1014,3 hPa 0,0 l/m 0,0 km/h (0 Bft) S 180 0 min 0,0 UV-I 8,3 C 10,3 C 0,0 km/h (0 Bft)
26.06.2014 00:05 9,9 C 24,7 C 11,2 C 10,2 C 10,2 C 0,3 C 90 % 94 % 0 % 1014,3 hPa 0,0 l/m 0,0 km/h (0 Bft) NO 45 0 min 0,0 UV-I 8,3 C 10,2 C 0,0 km/h (0 Bft)
26.06.2014 00:10 9,8 C 24,7 C 11,1 C 10,1 C 10,1 C 0,3 C 90 % 94 % 0 % 1014,3 hPa 0,0 l/m 0,0 km/h (0 Bft) O 90 0 min 0,0 UV-I 8,2 C 10,1 C 0,0 km/h (0 Bft)
26.06.2014 00:15 9,7 C 24,7 C 11,1 C 10,0 C 10,0 C 0,3 C 89 % 94 % 0 % 1014,3 hPa 0,0 l/m 0,0 km/h (0 Bft) NW 315 0 min 0,0 UV-I 8,0 C 10,0 C 0,0 km/h (0 Bft)
26.06.2014 00:20 9,6 C 24,7 C 11,0 C 9,8 C 9,8 C 0,2 C 89 % 94 % 0 % 1014,5 hPa 0,0 l/m 0,0 km/h (0 Bft) W-SW 247 0 min 0,0 UV-I 7,9 C 9,8 C 0,0 km/h (0 Bft)
26.06.2014 00:25 9,7 C 24,6 C 11,1 C 9,8 C 9,8 C 0,1 C 89 % 94 % 0 % 1014,5 hPa 0,0 l/m 0,0 km/h (0 Bft) NW 315 0 min 0,0 UV-I 8,0 C 9,8 C 0,0 km/h (0 Bft)
26.06.2014 00:30 9,6 C 24,6 C 11,2 C 10,0 C 10,0 C 0,4 C 90 % 94 % 0 % 1014,5 hPa 0,0 l/m 0,0 km/h (0 Bft) S-SW 202 0 min 0,0 UV-I 8,0 C 10,0 C 0,0 km/h (0 Bft)
26.06.2014 00:35 9,7 C 24,6 C 11,2 C 10,1 C 10,1 C 0,4 C 90 % 94 % 0 % 1014,5 hPa 0,0 l/m 0,0 km/h (0 Bft) W-SW 247 0 min 0,0 UV-I 8,1 C 10,1 C 0,0 km/h (0 Bft)
26.06.2014 00:41 9,6 C 24,6 C 11,2 C 10,3 C 10,3 C 0,7 C 90 % 94 % 0 % 1014,6 hPa 0,0 l/m 0,0 km/h (0 Bft) N 0 0 min 0,0 UV-I 8,0 C 10,3 C 0,0 km/h (0 Bft)
26.06.2014 01:01 9,6 C 24,6 C 11,2 C 10,3 C 10,3 C 0,7 C 90 % 94 % 0 % 1014,8 hPa 0,0 l/m 0,0 km/h (0 Bft) W 270 0 min 0,0 UV-I 8,0 C 10,3 C 0,0 km/h (0 Bft)
26.06.2014 01:02 9,6 C 24,6 C 11,2 C 10,3 C 10,3 C 0,7 C 90 % 94 % 0 % 1014,8 hPa 0,0 l/m 0,0 km/h (0 Bft) W 270 0 min 0,0 UV-I 8,0 C 10,3 C 0,0 km/h (0 Bft)
26.06.2014 01:10 9,6 C 24,6 C 11,3 C 10,3 C 10,3 C 0,7 C 90 % 94 % 0 % 1014,8 hPa 0,0 l/m 0,0 km/h (0 Bft) SO 135 0 min 0,0 UV-I 8,0 C 10,3 C 0,0 km/h (0 Bft)
26.06.2014 01:15 9,7 C 24,6 C 11,2 C 10,3 C 10,3 C 0,6 C 90 % 94 % 0 % 1014,8 hPa 0,0 l/m 0,0 km/h (0 Bft) O-SO 112 0 min 0,0 UV-I 8,1 C 10,3 C 0,0 km/h (0 Bft)
26.06.2014 01:20 9,7 C 24,6 C 11,2 C 10,3 C 10,3 C 0,6 C 90 % 94 % 0 % 1014,6 hPa 0,0 l/m 0,0 km/h (0 Bft) O-NO 67 0 min 0,0 UV-I 8,1 C 10,3 C 0,0 km/h (0 Bft)
26.06.2014 01:25 9,6 C 24,6 C 11,1 C 10,3 C 10,3 C 0,7 C 90 % 94 % 0 % 1014,6 hPa 0,0 l/m 0,0 km/h (0 Bft) O-NO 67 0 min 0,0 UV-I 8,0 C 10,3 C 0,0 km/h (0 Bft)
26.06.2014 01:30 9,6 C 24,6 C 11,0 C 10,1 C 10,1 C 0,5 C 90 % 94 % 0 % 1014,6 hPa 0,0 l/m 0,0 km/h (0 Bft) S-SW 202 0 min 0,0 UV-I 8,0 C 10,1 C 0,0 km/h (0 Bft)
26.06.2014 01:35 9,7 C 24,6 C 11,1 C 10,0 C 10,0 C 0,3 C 90 % 94 % 0 % 1014,6 hPa 0,0 l/m 0,0 km/h (0 Bft) O-SO 112 0 min 0,0 UV-I 8,1 C 10,0 C 0,0 km/h (0 Bft)
26.06.2014 01:40 9,5 C 24,6 C 10,9 C 9,8 C 9,8 C 0,3 C 90 % 94 % 0 % 1014,6 hPa 0,0 l/m 0,0 km/h (0 Bft) O 90 0 min 0,0 UV-I 7,9 C 9,8 C 0,0 km/h (0 Bft)
26.06.2014 01:45 9,5 C 24,6 C 10,9 C 9,7 C 9,7 C 0,2 C 90 % 94 % 0 % 1014,6 hPa 0,0 l/m 0,0 km/h (0 Bft) W-SW 247 0 min 0,0 UV-I 7,9 C 9,7 C 0,0 km/h (0 Bft)
26.06.2014 01:50 9,4 C 24,6 C 11,0 C 9,8 C 9,8 C 0,4 C 90 % 94 % 0 % 1014,6 hPa 0,0 l/m 0,0 km/h (0 Bft) O-NO 67 0 min 0,0 UV-I 7,8 C 9,8 C 0,0 km/h (0 Bft)
26.06.2014 01:55 9,4 C 24,6 C 11,0 C 9,9 C 9,9 C 0,5 C 90 % 94 % 0 % 1014,6 hPa 0,0 l/m 0,0 km/h (0 Bft) O-NO 67 0 min 0,0 UV-I 7,8 C 9,9 C 0,0 km/h (0 Bft)
26.06.2014 02:00 9,4 C 24,5 C 10,9 C 10,0 C 10,0 C 0,6 C 90 % 94 % 0 % 1014,4 hPa 0,0 l/m 0,0 km/h (0 Bft) O-NO 67 0 min 0,0 UV-I 7,8 C 10,0 C 0,0 km/h (0 Bft)
26.06.2014 02:05 9,4 C 24,5 C 11,0 C 10,0 C 10,0 C 0,6 C 90 % 94 % 0 % 1014,4 hPa 0,0 l/m 0,0 km/h (0 Bft) O-SO 112 0 min 0,0 UV-I 7,8 C 10,0 C 0,0 km/h (0 Bft)
26.06.2014 02:10 9,5 C 24,5 C 10,9 C 10,0 C 10,0 C 0,5 C 90 % 94 % 0 % 1014,4 hPa 0,0 l/m 0,0 km/h (0 Bft) SW 225 0 min 0,0 UV-I 7,9 C 10,0 C 0,0 km/h (0 Bft)
26.06.2014 02:15 9,5 C 24,5 C 11,0 C 10,0 C 10,0 C 0,5 C 90 % 94 % 0 % 1014,4 hPa 0,0 l/m 0,0 km/h (0 Bft) W-SW 247 0 min 0,0 UV-I 7,9 C 10,0 C 0,0 km/h (0 Bft)
26.06.2014 02:20 9,5 C 24,5 C 10,9 C 10,0 C 10,0 C 0,5 C 90 % 94 % 0 % 1014,9 hPa 0,0 l/m 0,0 km/h (0 Bft) NO 45 0 min 0,0 UV-I 7,9 C 10,0 C 0,0 km/h (0 Bft)
26.06.2014 02:25 9,5 C 24,5 C 10,8 C 10,0 C 10,0 C 0,5 C 90 % 94 % 0 % 1014,9 hPa 0,0 l/m 0,0 km/h (0 Bft) N-NW 337 0 min 0,0 UV-I 7,9 C 10,0 C 0,0 km/h (0 Bft)
26.06.2014 02:30 9,5 C 24,5 C 10,9 C 10,0 C 10,0 C 0,5 C 90 % 94 % 0 % 1014,9 hPa 0,0 l/m 0,0 km/h (0 Bft) W 270 0 min 0,0 UV-I 7,9 C 10,0 C 0,0 km/h (0 Bft)
26.06.2014 02:35 9,5 C 24,5 C 10,9 C 10,0 C 10,0 C 0,5 C 90 % 94 % 0 % 1014,9 hPa 0,0 l/m 0,0 km/h (0 Bft) W 270 0 min 0,0 UV-I 7,9 C 10,0 C 0,0 km/h (0 Bft)
26.06.2014 02:40 9,5 C 24,5 C 11,0 C 10,1 C 10,1 C 0,6 C 90 % 94 % 0 % 1015,0 hPa 0,0 l/m 0,0 km/h (0 Bft) O-NO 67 0 min 0,0 UV-I 7,9 C 10,1 C 0,0 km/h (0 Bft)
26.06.2014 02:45 9,4 C 24,5 C 11,0 C 10,2 C 10,2 C 0,8 C 90 % 94 % 0 % 1015,0 hPa 0,0 l/m 0,0 km/h (0 Bft) SW 225 0 min 0,0 UV-I 7,8 C 10,2 C 0,0 km/h (0 Bft)
26.06.2014 02:50 9,4 C 24,5 C 11,0 C 10,2 C 10,2 C 0,8 C 90 % 94 % 0 % 1015,0 hPa 0,0 l/m 0,0 km/h (0 Bft) W 270 0 min 0,0 UV-I 7,8 C 10,2 C 0,0 km/h (0 Bft)
26.06.2014 02:55 9,4 C 24,5 C 11,0 C 10,2 C 10,2 C 0,8 C 90 % 94 % 0 % 1015,0 hPa 0,0 l/m 0,0 km/h (0 Bft) S 180 0 min 0,0 UV-I 7,8 C 10,2 C 0,0 km/h (0 Bft)
26.06.2014 03:00 9,5 C 24,5 C 10,9 C 9,9 C 9,9 C 0,4 C 90 % 94 % 0 % 1014,6 hPa 0,0 l/m 0,0 km/h (0 Bft) W 270 0 min 0,0 UV-I 7,9 C 9,9 C 0,0 km/h (0 Bft)
26.06.2014 03:05 9,5 C 24,5 C 10,7 C 9,8 C 9,8 C 0,3 C 90 % 93 % 0 % 1014,6 hPa 0,0 l/m 0,0 km/h (0 Bft) W 270 0 min 0,0 UV-I 7,9 C 9,8 C 0,0 km/h (0 Bft)
26.06.2014 03:10 9,3 C 24,5 C 10,7 C 9,6 C 9,6 C 0,3 C 90 % 94 % 0 % 1014,6 hPa 0,0 l/m 0,0 km/h (0 Bft) O-SO 112 0 min 0,0 UV-I 7,7 C 9,6 C 0,0 km/h (0 Bft)
26.06.2014 03:15 9,2 C 24,5 C 10,7 C 9,5 C 9,5 C 0,3 C 90 % 94 % 0 % 1014,6 hPa 0,0 l/m 0,0 km/h (0 Bft) W-NW 292 0 min 0,0 UV-I 7,6 C 9,5 C 0,0 km/h (0 Bft)
26.06.2014 03:20 9,2 C 24,5 C 10,7 C 9,3 C 9,3 C 0,1 C 90 % 94 % 0 % 1015,1 hPa 0,0 l/m 0,0 km/h (0 Bft) O 90 0 min 0,0 UV-I 7,6 C 9,3 C 0,0 km/h (0 Bft)
26.06.2014 03:25 9,2 C 24,5 C 10,7 C 9,4 C 9,4 C 0,2 C 90 % 94 % 0 % 1015,1 hPa 0,0 l/m 0,0 km/h (0 Bft) S-SW 202 0 min 0,0 UV-I 7,6 C 9,4 C 0,0 km/h (0 Bft)
26.06.2014 03:30 9,1 C 24,5 C 10,5 C 9,3 C 9,3 C 0,2 C 90 % 94 % 0 % 1015,1 hPa 0,0 l/m 0,0 km/h (0 Bft) W-NW 292 0 min 0,0 UV-I 7,5 C 9,3 C 0,0 km/h (0 Bft)
26.06.2014 03:35 9,1 C 24,5 C 10,6 C 9,3 C 9,3 C 0,2 C 90 % 94 % 0 % 1015,1 hPa 0,0 l/m 0,0 km/h (0 Bft) S-SW 202 0 min 0,0 UV-I 7,5 C 9,3 C 0,0 km/h (0 Bft)
26.06.2014 03:40 9,1 C 24,4 C 10,5 C 9,2 C 9,2 C 0,1 C 90 % 94 % 0 % 1015,1 hPa 0,0 l/m 0,0 km/h (0 Bft) S 180 0 min 0,0 UV-I 7,5 C 9,2 C 0,0 km/h (0 Bft)
26.06.2014 03:45 9,1 C 24,4 C 10,4 C 9,1 C 9,1 C 0,0 C 90 % 94 % 0 % 1015,1 hPa 0,0 l/m 0,0 km/h (0 Bft) S 180 0 min 0,0 UV-I 7,5 C 9,1 C 0,0 km/h (0 Bft)
26.06.2014 03:50 8,9 C 24,4 C 10,4 C 9,1 C 9,1 C 0,2 C 90 % 94 % 0 % 1015,1 hPa 0,0 l/m 0,0 km/h (0 Bft) W-SW 247 0 min 0,0 UV-I 7,4 C 9,1 C 0,0 km/h (0 Bft)
26.06.2014 03:55 8,9 C 24,4 C 10,5 C 9,2 C 9,2 C 0,3 C 90 % 94 % 0 % 1015,1 hPa 0,0 l/m 0,0 km/h (0 Bft) SW 225 0 min 0,0 UV-I 7,4 C 9,2 C 0,0 km/h (0 Bft)
26.06.2014 04:00 8,9 C 24,4 C 10,5 C 9,3 C 9,3 C 0,4 C 90 % 94 % 0 % 1015,1 hPa 0,0 l/m 0,0 km/h (0 Bft) W 270 0 min 0,0 UV-I 7,4 C 9,3 C 0,0 km/h (0 Bft)
26.06.2014 04:05 8,9 C 24,4 C 10,5 C 9,4 C 9,4 C 0,5 C 90 % 94 % 0 % 1015,1 hPa 0,0 l/m 0,0 km/h (0 Bft) W 270 0 min 0,0 UV-I 7,4 C 9,4 C 0,0 km/h (0 Bft)
26.06.2014 04:10 8,9 C 24,4 C 10,5 C 9,5 C 9,5 C 0,6 C 90 % 94 % 0 % 1015,1 hPa 0,0 l/m 0,0 km/h (0 Bft) SW 225 0 min 0,0 UV-I 7,4 C 9,5 C 0,0 km/h (0 Bft)
26.06.2014 04:15 8,9 C 24,4 C 10,5 C 9,5 C 9,5 C 0,6 C 90 % 94 % 0 % 1015,1 hPa 0,0 l/m 0,2 km/h (0 Bft) SW 225 0 min 0,0 UV-I 7,4 C 9,5 C 0,0 km/h (0 Bft)
26.06.2014 04:20 8,8 C 24,4 C 10,5 C 9,4 C 9,4 C 0,6 C 90 % 94 % 0 % 1015,1 hPa 0,0 l/m 0,2 km/h (0 Bft) S 180 0 min 0,0 UV-I 7,3 C 9,4 C 1,9 km/h (1 Bft)
26.06.2014 04:25 8,9 C 24,4 C 10,5 C 9,3 C 9,3 C 0,4 C 90 % 94 % 0 % 1015,1 hPa 0,0 l/m 0,0 km/h (0 Bft) SW 225 0 min 0,0 UV-I 7,4 C 9,3 C 0,0 km/h (0 Bft)
26.06.2014 04:30 8,8 C 24,4 C 10,4 C 9,3 C 9,3 C 0,5 C 90 % 94 % 0 % 1015,1 hPa 0,0 l/m 0,0 km/h (0 Bft) S 180 0 min 0,0 UV-I 7,3 C 9,3 C 0,0 km/h (0 Bft)
26.06.2014 04:35 8,8 C 24,4 C 10,4 C 9,2 C 9,2 C 0,4 C 90 % 94 % 0 % 1015,1 hPa 0,0 l/m 0,0 km/h (0 Bft) S-SW 202 0 min 0,0 UV-I 7,3 C 9,2 C 2,3 km/h (1 Bft)
26.06.2014 04:40 8,6 C 24,5 C 10,3 C 9,1 C 9,1 C 0,5 C 90 % 94 % 0 % 1015,1 hPa 0,0 l/m 0,5 km/h (0 Bft) SW 225 0 min 0,0 UV-I 7,1 C 9,1 C 0,0 km/h (0 Bft)
26.06.2014 04:45 8,7 C 24,4 C 10,3 C 9,1 C 9,1 C 0,4 C 90 % 94 % 0 % 1015,1 hPa 0,0 l/m 0,5 km/h (0 Bft) N-NW 337 0 min 0,0 UV-I 7,2 C 9,1 C 0,0 km/h (0 Bft)
26.06.2014 04:50 8,5 C 24,4 C 10,0 C 8,9 C 8,9 C 0,4 C 90 % 94 % 0 % 1015,1 hPa 0,0 l/m 0,0 km/h (0 Bft) W-NW 292 0 min 0,0 UV-I 7,0 C 8,9 C 2,4 km/h (1 Bft)
26.06.2014 04:55 8,4 C 24,4 C 10,1 C 8,8 C 8,8 C 0,4 C 90 % 94 % 0 % 1015,1 hPa 0,0 l/m 0,0 km/h (0 Bft) S-SO 157 0 min 0,0 UV-I 6,9 C 8,8 C 0,0 km/h (0 Bft)
26.06.2014 05:00 8,4 C 24,4 C 9,9 C 8,8 C 8,8 C 0,4 C 90 % 94 % 0 % 1015,4 hPa 0,0 l/m 0,0 km/h (0 Bft) W 270 0 min 0,0 UV-I 6,9 C 8,8 C 0,0 km/h (0 Bft)
26.06.2014 05:05 8,4 C 24,4 C 10,0 C 8,8 C 8,8 C 0,4 C 90 % 94 % 0 % 1015,4 hPa 0,0 l/m 0,0 km/h (0 Bft) SW 225 0 min 0,0 UV-I 6,9 C 8,8 C 0,0 km/h (0 Bft)
26.06.2014 05:10 8,4 C 24,4 C 10,0 C 8,9 C 8,9 C 0,5 C 90 % 94 % 13 % 1015,4 hPa 0,0 l/m 0,0 km/h (0 Bft) W-SW 247 5 min 0,0 UV-I 6,9 C 8,9 C 0,0 km/h (0 Bft)
26.06.2014 05:15 8,4 C 24,4 C 10,0 C 9,0 C 9,0 C 0,6 C 90 % 94 % 16 % 1015,4 hPa 0,0 l/m 0,0 km/h (0 Bft) W 270 5 min 0,0 UV-I 6,9 C 9,0 C 0,0 km/h (0 Bft)
26.06.2014 05:20 8,4 C 24,4 C 10,1 C 9,1 C 9,1 C 0,7 C 90 % 94 % 18 % 1015,6 hPa 0,0 l/m 0,0 km/h (0 Bft) SW 225 5 min 0,0 UV-I 6,9 C 9,1 C 0,0 km/h (0 Bft)
26.06.2014 05:25 8,5 C 24,4 C 10,1 C 9,1 C 9,1 C 0,6 C 90 % 94 % 16 % 1015,6 hPa 0,0 l/m 0,0 km/h (0 Bft) W-SW 247 5 min 0,0 UV-I 7,0 C 9,1 C 0,0 km/h (0 Bft)
26.06.2014 05:30 8,4 C 24,4 C 10,1 C 9,1 C 9,1 C 0,7 C 91 % 94 % 18 % 1015,6 hPa 0,0 l/m 0,0 km/h (0 Bft) W-SW 247 5 min 0,0 UV-I 7,0 C 9,1 C 0,0 km/h (0 Bft)
26.06.2014 05:35 8,4 C 24,4 C 10,0 C 9,1 C 9,1 C 0,7 C 90 % 94 % 18 % 1015,6 hPa 0,0 l/m 0,0 km/h (0 Bft) S-SO 157 5 min 0,0 UV-I 6,9 C 9,1 C 0,0 km/h (0 Bft)
26.06.2014 05:40 8,4 C 24,4 C 10,0 C 9,1 C 9,1 C 0,7 C 91 % 94 % 18 % 1015,9 hPa 0,0 l/m 0,0 km/h (0 Bft) W-SW 247 0 min 0,0 UV-I 7,0 C 9,1 C 0,0 km/h (0 Bft)
26.06.2014 05:45 8,5 C 24,4 C 10,1 C 9,2 C 9,2 C 0,7 C 91 % 94 % 18 % 1015,9 hPa 0,0 l/m 0,0 km/h (0 Bft) W-SW 247 0 min 0,0 UV-I 7,1 C 9,2 C 0,0 km/h (0 Bft)
26.06.2014 05:50 8,4 C 24,4 C 10,1 C 9,3 C 9,3 C 0,9 C 91 % 94 % 24 % 1015,9 hPa 0,0 l/m 0,0 km/h (0 Bft) S-SW 202 0 min 0,0 UV-I 7,0 C 9,3 C 0,0 km/h (0 Bft)
26.06.2014 05:55 8,4 C 24,4 C 10,3 C 9,3 C 9,3 C 0,9 C 91 % 94 % 24 % 1015,9 hPa 0,0 l/m 0,0 km/h (0 Bft) SW 225 0 min 0,0 UV-I 7,0 C 9,3 C 0,0 km/h (0 Bft)
26.06.2014 06:00 8,5 C 24,3 C 10,1 C 9,1 C 9,1 C 0,6 C 91 % 94 % 16 % 1016,2 hPa 0,0 l/m 0,0 km/h (0 Bft) W-SW 247 0 min 0,0 UV-I 7,1 C 9,1 C 0,0 km/h (0 Bft)
26.06.2014 06:05 8,5 C 24,4 C 10,0 C 9,0 C 9,0 C 0,5 C 91 % 94 % 13 % 1016,2 hPa 0,0 l/m 0,0 km/h (0 Bft) O-NO 67 0 min 0,0 UV-I 7,1 C 9,0 C 0,0 km/h (0 Bft)
26.06.2014 06:10 8,4 C 24,3 C 10,3 C 9,0 C 9,0 C 0,6 C 91 % 94 % 16 % 1016,2 hPa 0,0 l/m 0,0 km/h (0 Bft) O-SO 112 0 min 0,0 UV-I 7,0 C 9,0 C 0,0 km/h (0 Bft)
26.06.2014 06:15 8,4 C 24,3 C 10,3 C 9,2 C 9,2 C 0,8 C 91 % 94 % 21 % 1016,2 hPa 0,0 l/m 0,0 km/h (0 Bft) O-NO 67 0 min 0,0 UV-I 7,0 C 9,2 C 0,0 km/h (0 Bft)
26.06.2014 06:20 8,7 C 24,3 C 10,5 C 9,6 C 9,6 C 0,9 C 91 % 94 % 24 % 1016,4 hPa 0,0 l/m 0,0 km/h (0 Bft) O 90 0 min 0,0 UV-I 7,3 C 9,6 C 0,0 km/h (0 Bft)
26.06.2014 06:25 8,7 C 24,3 C 10,5 C 10,0 C 10,0 C 1,3 C 91 % 94 % 34 % 1016,4 hPa 0,0 l/m 0,0 km/h (0 Bft) NW 315 0 min 0,0 UV-I 7,3 C 10,0 C 0,0 km/h (0 Bft)
26.06.2014 06:30 8,8 C 24,3 C 10,7 C 10,2 C 10,2 C 1,4 C 91 % 94 % 37 % 1016,4 hPa 0,0 l/m 0,0 km/h (0 Bft) SW 225 0 min 0,0 UV-I 7,4 C 10,2 C 0,0 km/h (0 Bft)
26.06.2014 06:35 8,9 C 24,3 C 10,7 C 10,2 C 10,2 C 1,3 C 91 % 94 % 34 % 1016,4 hPa 0,0 l/m 0,0 km/h (0 Bft) S 180 0 min 0,0 UV-I 7,5 C 10,2 C 0,0 km/h (0 Bft)
26.06.2014 06:41 9,1 C 24,2 C 10,8 C 10,5 C 10,5 C 1,4 C 92 % 94 % 37 % 1016,2 hPa 0,0 l/m 0,0 km/h (0 Bft) N 0 0 min 0,0 UV-I 7,9 C 10,5 C 2,6 km/h (1 Bft)
26.06.2014 07:01 9,4 C 24,2 C 11,1 C 11,0 C 11,0 C 1,6 C 92 % 94 % 42 % 1016,4 hPa 0,0 l/m 0,0 km/h (0 Bft) W 270 0 min 0,0 UV-I 8,2 C 11,0 C 0,0 km/h (0 Bft)
26.06.2014 07:02 9,4 C 24,2 C 11,1 C 11,0 C 11,0 C 1,6 C 92 % 94 % 42 % 1016,4 hPa 0,0 l/m 0,0 km/h (0 Bft) W 270 0 min 0,0 UV-I 8,2 C 11,0 C 0,0 km/h (0 Bft)
26.06.2014 07:05 9,4 C 24,2 C 11,1 C 11,0 C 11,0 C 1,6 C 92 % 94 % 42 % 1016,4 hPa 0,0 l/m 0,0 km/h (0 Bft) W 270 0 min 0,0 UV-I 8,2 C 11,0 C 0,0 km/h (0 Bft)
26.06.2014 07:10 9,5 C 24,2 C 11,1 C 11,0 C 11,0 C 1,5 C 92 % 94 % 39 % 1016,4 hPa 0,0 l/m 0,2 km/h (0 Bft) S-SO 157 0 min 0,0 UV-I 8,3 C 11,0 C 3,1 km/h (1 Bft)
26.06.2014 07:15 9,6 C 24,2 C 11,1 C 11,0 C 11,0 C 1,4 C 92 % 94 % 37 % 1016,4 hPa 0,0 l/m 0,5 km/h (0 Bft) S-SO 157 0 min 0,0 UV-I 8,4 C 11,0 C 2,1 km/h (1 Bft)
26.06.2014 07:20 9,6 C 24,2 C 11,2 C 11,2 C 11,2 C 1,6 C 92 % 94 % 42 % 1016,8 hPa 0,0 l/m 0,5 km/h (0 Bft) W-NW 292 0 min 0,0 UV-I 8,4 C 11,2 C 3,2 km/h (1 Bft)
26.06.2014 07:25 9,6 C 24,2 C 11,2 C 11,3 C 11,3 C 1,7 C 92 % 94 % 45 % 1016,8 hPa 0,0 l/m 0,5 km/h (0 Bft) S 180 0 min 0,0 UV-I 8,4 C 11,3 C 2,3 km/h (1 Bft)
26.06.2014 07:30 9,6 C 24,2 C 11,3 C 11,6 C 11,6 C 2,0 C 92 % 94 % 53 % 1016,8 hPa 0,0 l/m 0,8 km/h (0 Bft) S 180 0 min 0,0 UV-I 8,4 C 11,6 C 3,7 km/h (1 Bft)
26.06.2014 07:35 9,7 C 24,2 C 11,5 C 11,8 C 11,8 C 2,1 C 92 % 94 % 55 % 1016,8 hPa 0,0 l/m 1,3 km/h (1 Bft) W-NW 292 0 min 0,0 UV-I 8,5 C 11,8 C 2,6 km/h (1 Bft)
26.06.2014 07:40 9,9 C 24,2 C 11,4 C 12,2 C 12,2 C 2,3 C 92 % 94 % 61 % 1016,1 hPa 0,0 l/m 1,3 km/h (1 Bft) W-SW 247 0 min 0,0 UV-I 8,7 C 12,2 C 4,0 km/h (1 Bft)
26.06.2014 07:45 9,9 C 24,1 C 11,5 C 12,3 C 12,3 C 2,4 C 92 % 94 % 63 % 1016,1 hPa 0,0 l/m 1,0 km/h (0 Bft) W 270 0 min 0,0 UV-I 8,7 C 12,3 C 0,0 km/h (0 Bft)
26.06.2014 07:50 10,0 C 24,1 C 11,6 C 12,4 C 12,4 C 2,4 C 92 % 94 % 63 % 1016,1 hPa 0,0 l/m 0,5 km/h (0 Bft) SO 135 0 min 0,0 UV-I 8,8 C 12,4 C 0,0 km/h (0 Bft)
26.06.2014 07:55 10,0 C 24,1 C 11,6 C 12,6 C 12,6 C 2,6 C 92 % 94 % 68 % 1016,1 hPa 0,0 l/m 0,2 km/h (0 Bft) W-SW 247 0 min 0,0 UV-I 8,8 C 12,6 C 1,6 km/h (1 Bft)
26.06.2014 08:00 10,1 C 24,1 C 11,6 C 12,7 C 12,7 C 2,6 C 92 % 94 % 68 % 1015,6 hPa 0,0 l/m 0,0 km/h (0 Bft) NO 45 0 min 0,0 UV-I 8,9 C 12,7 C 0,0 km/h (0 Bft)
26.06.2014 08:05 10,3 C 24,1 C 11,7 C 12,8 C 12,8 C 2,5 C 92 % 94 % 66 % 1015,6 hPa 0,0 l/m 0,0 km/h (0 Bft) S 180 0 min 0,0 UV-I 9,1 C 12,8 C 0,0 km/h (0 Bft)
26.06.2014 08:10 10,3 C 24,1 C 11,9 C 12,9 C 12,9 C 2,6 C 92 % 94 % 68 % 1015,6 hPa 0,0 l/m 0,0 km/h (0 Bft) SW 225 0 min 0,0 UV-I 9,1 C 12,9 C 0,0 km/h (0 Bft)
26.06.2014 08:15 10,3 C 24,1 C 11,9 C 13,0 C 13,0 C 2,7 C 92 % 94 % 71 % 1015,6 hPa 0,0 l/m 0,2 km/h (0 Bft) NO 45 0 min 0,0 UV-I 9,1 C 13,0 C 0,0 km/h (0 Bft)
26.06.2014 08:20 10,4 C 24,1 C 11,9 C 13,2 C 13,2 C 2,8 C 92 % 94 % 74 % 1016,6 hPa 0,0 l/m 0,0 km/h (0 Bft) N-NO 22 0 min 0,0 UV-I 9,2 C 13,2 C 0,0 km/h (0 Bft)
26.06.2014 08:25 10,5 C 24,0 C 11,9 C 13,3 C 13,3 C 2,8 C 92 % 94 % 74 % 1016,6 hPa 0,0 l/m 0,0 km/h (0 Bft) SO 135 0 min 0,0 UV-I 9,3 C 13,3 C 0,0 km/h (0 Bft)
26.06.2014 08:30 10,6 C 24,1 C 11,9 C 13,5 C 13,5 C 2,9 C 92 % 94 % 76 % 1016,6 hPa 0,0 l/m 0,0 km/h (0 Bft) N-NW 337 0 min 0,0 UV-I 9,4 C 13,5 C 0,0 km/h (0 Bft)
26.06.2014 08:35 10,7 C 24,0 C 12,0 C 13,6 C 13,6 C 2,9 C 92 % 94 % 76 % 1016,6 hPa 0,0 l/m 0,0 km/h (0 Bft) O-NO 67 0 min 0,0 UV-I 9,5 C 13,6 C 0,0 km/h (0 Bft)
26.06.2014 08:40 10,7 C 24,0 C 12,0 C 13,8 C 13,8 C 3,1 C 92 % 94 % 82 % 1016,5 hPa 0,0 l/m 0,0 km/h (0 Bft) S-SW 202 0 min 0,0 UV-I 9,5 C 13,8 C 0,0 km/h (0 Bft)
26.06.2014 08:45 10,7 C 24,0 C 12,1 C 13,9 C 13,9 C 3,2 C 91 % 94 % 84 % 1016,5 hPa 0,0 l/m 0,0 km/h (0 Bft) O-NO 67 0 min 0,0 UV-I 9,3 C 13,9 C 0,0 km/h (0 Bft)
26.06.2014 08:50 10,9 C 24,0 C 12,2 C 14,1 C 14,1 C 3,2 C 91 % 94 % 84 % 1016,5 hPa 0,0 l/m 0,0 km/h (0 Bft) O-NO 67 0 min 0,0 UV-I 9,5 C 14,1 C 0,0 km/h (0 Bft)
26.06.2014 08:55 10,9 C 24,0 C 12,4 C 14,4 C 14,4 C 3,5 C 91 % 94 % 92 % 1016,5 hPa 0,0 l/m 0,0 km/h (0 Bft) S-SW 202 5 min 0,0 UV-I 9,5 C 14,4 C 0,0 km/h (0 Bft)
26.06.2014 09:00 11,0 C 23,9 C 12,4 C 15,0 C 15,0 C 4,0 C 91 % 94 % 100 % 1016,4 hPa 0,0 l/m 0,0 km/h (0 Bft) S 180 5 min 0,0 UV-I 9,6 C 15,0 C 0,0 km/h (0 Bft)
26.06.2014 09:05 11,2 C 23,9 C 12,5 C 15,2 C 15,2 C 4,0 C 92 % 94 % 100 % 1016,4 hPa 0,0 l/m 0,0 km/h (0 Bft) N-NW 337 5 min 0,0 UV-I 9,9 C 15,2 C 0,0 km/h (0 Bft)
26.06.2014 09:10 11,4 C 23,9 C 12,6 C 15,5 C 15,5 C 4,1 C 92 % 94 % 100 % 1016,4 hPa 0,0 l/m 0,0 km/h (0 Bft) S 180 5 min 0,0 UV-I 10,1 C 15,5 C 0,0 km/h (0 Bft)
26.06.2014 09:15 11,5 C 23,9 C 12,7 C 15,5 C 15,5 C 4,0 C 92 % 94 % 100 % 1016,4 hPa 0,0 l/m 0,0 km/h (0 Bft) N-NW 337 5 min 0,0 UV-I 10,2 C 15,5 C 0,0 km/h (0 Bft)
26.06.2014 09:20 11,4 C 23,9 C 12,7 C 15,3 C 15,3 C 3,9 C 92 % 94 % 100 % 1016,6 hPa 0,0 l/m 0,2 km/h (0 Bft) W-SW 247 5 min 0,0 UV-I 10,1 C 15,3 C 0,0 km/h (0 Bft)
26.06.2014 09:25 11,4 C 23,9 C 12,9 C 15,5 C 15,5 C 4,1 C 91 % 94 % 100 % 1016,6 hPa 0,0 l/m 0,2 km/h (0 Bft) W-SW 247 5 min 0,0 UV-I 10,0 C 15,5 C 0,0 km/h (0 Bft)
26.06.2014 09:30 11,6 C 23,9 C 13,0 C 15,9 C 15,9 C 4,3 C 91 % 93 % 100 % 1016,6 hPa 0,0 l/m 0,0 km/h (0 Bft) W 270 5 min 0,0 UV-I 10,2 C 15,9 C 0,0 km/h (0 Bft)
26.06.2014 09:35 11,6 C 23,9 C 13,1 C 16,2 C 16,2 C 4,6 C 91 % 93 % 100 % 1016,6 hPa 0,0 l/m 0,3 km/h (0 Bft) NW 315 5 min 0,0 UV-I 10,2 C 16,2 C 0,0 km/h (0 Bft)
26.06.2014 09:40 11,9 C 23,8 C 13,1 C 16,6 C 16,6 C 4,7 C 91 % 93 % 100 % 1016,7 hPa 0,0 l/m 0,2 km/h (0 Bft) S-SO 157 5 min 0,0 UV-I 10,5 C 16,6 C 0,0 km/h (0 Bft)
26.06.2014 09:45 11,8 C 23,8 C 13,2 C 16,5 C 16,5 C 4,7 C 91 % 93 % 100 % 1016,7 hPa 0,0 l/m 0,0 km/h (0 Bft) O-NO 67 5 min 0,0 UV-I 10,4 C 16,5 C 0,0 km/h (0 Bft)
26.06.2014 09:50 11,8 C 23,8 C 13,3 C 16,3 C 16,3 C 4,5 C 90 % 93 % 100 % 1016,7 hPa 0,0 l/m 0,0 km/h (0 Bft) S 180 5 min 0,0 UV-I 10,2 C 16,3 C 0,0 km/h (0 Bft)
26.06.2014 09:55 11,9 C 23,9 C 13,2 C 16,4 C 16,4 C 4,5 C 90 % 93 % 100 % 1016,7 hPa 0,0 l/m 0,0 km/h (0 Bft) W 270 5 min 0,0 UV-I 10,3 C 16,4 C 0,0 km/h (0 Bft)
26.06.2014 10:00 12,0 C 23,8 C 13,4 C 16,5 C 16,5 C 4,5 C 90 % 94 % 100 % 1016,7 hPa 0,0 l/m 0,2 km/h (0 Bft) S 180 5 min 0,0 UV-I 10,4 C 16,5 C 0,0 km/h (0 Bft)
26.06.2014 10:05 12,1 C 23,9 C 13,4 C 16,7 C 16,7 C 4,6 C 90 % 94 % 100 % 1016,7 hPa 0,0 l/m 0,2 km/h (0 Bft) W-SW 247 5 min 0,0 UV-I 10,5 C 16,7 C 0,0 km/h (0 Bft)
26.06.2014 10:10 12,3 C 23,8 C 13,7 C 17,2 C 17,2 C 4,9 C 90 % 94 % 100 % 1016,7 hPa 0,0 l/m 0,0 km/h (0 Bft) O-SO 112 5 min 0,0 UV-I 10,7 C 17,2 C 0,0 km/h (0 Bft)
26.06.2014 10:15 12,2 C 23,8 C 13,6 C 17,4 C 17,4 C 5,2 C 89 % 94 % 100 % 1016,7 hPa 0,0 l/m 0,2 km/h (0 Bft) SO 135 5 min 0,0 UV-I 10,4 C 17,4 C 2,4 km/h (1 Bft)
26.06.2014 10:20 12,3 C 23,8 C 13,7 C 17,1 C 17,1 C 4,8 C 89 % 94 % 100 % 1016,4 hPa 0,0 l/m 0,3 km/h (0 Bft) N-NO 22 5 min 0,0 UV-I 10,5 C 17,1 C 0,0 km/h (0 Bft)
26.06.2014 10:25 12,3 C 23,8 C 13,6 C 16,9 C 16,9 C 4,6 C 89 % 94 % 100 % 1016,4 hPa 0,0 l/m 0,3 km/h (0 Bft) O 90 5 min 0,0 UV-I 10,5 C 16,9 C 0,0 km/h (0 Bft)
26.06.2014 10:30 12,5 C 23,8 C 13,7 C 16,9 C 16,9 C 4,4 C 88 % 93 % 100 % 1016,4 hPa 0,0 l/m 0,2 km/h (0 Bft) N-NW 337 5 min 0,0 UV-I 10,6 C 16,9 C 0,0 km/h (0 Bft)
26.06.2014 10:35 12,4 C 23,8 C 13,9 C 17,4 C 17,4 C 5,0 C 88 % 93 % 100 % 1016,4 hPa 0,0 l/m 0,5 km/h (0 Bft) SW 225 5 min 0,0 UV-I 10,5 C 17,4 C 2,4 km/h (1 Bft)
26.06.2014 10:40 12,7 C 23,8 C 14,0 C 17,9 C 17,9 C 5,2 C 88 % 93 % 100 % 1016,1 hPa 0,0 l/m 0,5 km/h (0 Bft) O-SO 112 5 min 0,0 UV-I 10,8 C 17,9 C 0,0 km/h (0 Bft)
26.06.2014 10:45 12,9 C 23,8 C 14,1 C 18,0 C 18,0 C 5,1 C 87 % 93 % 100 % 1016,1 hPa 0,0 l/m 0,3 km/h (0 Bft) S 180 5 min 0,0 UV-I 10,8 C 18,0 C 0,0 km/h (0 Bft)
26.06.2014 10:50 13,1 C 23,7 C 14,4 C 18,1 C 18,1 C 5,0 C 87 % 93 % 100 % 1016,1 hPa 0,0 l/m 0,0 km/h (0 Bft) SO 135 5 min 0,0 UV-I 11,0 C 18,1 C 0,0 km/h (0 Bft)
26.06.2014 10:55 13,1 C 23,7 C 14,5 C 18,3 C 18,3 C 5,2 C 87 % 93 % 100 % 1016,1 hPa 0,0 l/m 0,0 km/h (0 Bft) S-SO 157 5 min 0,0 UV-I 11,0 C 18,3 C 0,0 km/h (0 Bft)
26.06.2014 11:00 13,5 C 23,7 C 14,8 C 18,8 C 18,8 C 5,3 C 86 % 93 % 100 % 1015,9 hPa 0,0 l/m 0,3 km/h (0 Bft) NO 45 5 min 0,0 UV-I 11,2 C 18,8 C 3,2 km/h (1 Bft)
26.06.2014 11:05 13,7 C 23,7 C 14,8 C 19,2 C 19,2 C 5,5 C 85 % 93 % 100 % 1015,9 hPa 0,0 l/m 1,1 km/h (1 Bft) W 270 5 min 0,0 UV-I 11,2 C 19,2 C 0,0 km/h (0 Bft)
26.06.2014 11:10 13,6 C 23,7 C 14,9 C 19,9 C 19,9 C 6,3 C 85 % 93 % 100 % 1015,9 hPa 0,0 l/m 1,3 km/h (1 Bft) W-SW 247 5 min 0,0 UV-I 11,1 C 19,9 C 4,3 km/h (1 Bft)
26.06.2014 11:15 13,9 C 23,7 C 14,9 C 20,1 C 20,1 C 6,2 C 84 % 93 % 100 % 1015,9 hPa 0,0 l/m 0,6 km/h (0 Bft) N-NO 22 5 min 0,0 UV-I 11,2 C 20,1 C 0,0 km/h (0 Bft)
26.06.2014 11:20 13,9 C 23,7 C 14,9 C 19,8 C 19,8 C 5,9 C 83 % 92 % 100 % 1015,9 hPa 0,0 l/m 0,3 km/h (0 Bft) W-SW 247 5 min 0,0 UV-I 11,1 C 19,8 C 2,7 km/h (1 Bft)
26.06.2014 11:25 13,9 C 23,7 C 15,1 C 20,8 C 20,8 C 6,9 C 83 % 93 % 100 % 1015,9 hPa 0,0 l/m 0,3 km/h (0 Bft) W 270 5 min 0,0 UV-I 11,1 C 20,8 C 1,8 km/h (1 Bft)
26.06.2014 11:30 14,1 C 23,7 C 15,3 C 21,2 C 21,2 C 7,1 C 83 % 93 % 100 % 1015,9 hPa 0,0 l/m 1,6 km/h (1 Bft) W 270 5 min 0,0 UV-I 11,3 C 21,2 C 2,4 km/h (1 Bft)
26.06.2014 11:35 14,4 C 23,7 C 15,3 C 20,4 C 20,4 C 6,0 C 82 % 93 % 100 % 1015,9 hPa 0,0 l/m 1,6 km/h (1 Bft) SW 225 5 min 0,0 UV-I 11,4 C 20,4 C 1,6 km/h (1 Bft)
26.06.2014 11:40 14,4 C 23,6 C 15,5 C 21,0 C 21,0 C 6,6 C 83 % 92 % 100 % 1016,0 hPa 0,0 l/m 1,0 km/h (0 Bft) SW 225 5 min 0,0 UV-I 11,5 C 21,0 C 2,6 km/h (1 Bft)
26.06.2014 11:45 14,6 C 23,7 C 15,6 C 21,5 C 21,5 C 6,9 C 83 % 92 % 100 % 1016,0 hPa 0,0 l/m 0,5 km/h (0 Bft) NW 315 5 min 0,0 UV-I 11,7 C 21,5 C 0,0 km/h (0 Bft)
26.06.2014 11:50 14,8 C 23,6 C 15,6 C 21,6 C 21,6 C 6,8 C 82 % 92 % 100 % 1016,0 hPa 0,0 l/m 0,6 km/h (0 Bft) O-SO 112 5 min 0,0 UV-I 11,8 C 21,6 C 0,0 km/h (0 Bft)
26.06.2014 11:55 15,1 C 23,7 C 15,7 C 21,6 C 21,6 C 6,5 C 81 % 92 % 100 % 1016,0 hPa 0,0 l/m 0,5 km/h (0 Bft) SW 225 5 min 0,0 UV-I 11,9 C 21,6 C 0,0 km/h (0 Bft)
26.06.2014 12:00 15,2 C 23,7 C 15,8 C 21,9 C 21,9 C 6,7 C 80 % 92 % 100 % 1015,9 hPa 0,0 l/m 0,2 km/h (0 Bft) S-SW 202 5 min 0,0 UV-I 11,8 C 21,9 C 0,0 km/h (0 Bft)
26.06.2014 12:05 15,3 C 23,7 C 15,9 C 21,9 C 21,9 C 6,6 C 80 % 91 % 100 % 1015,9 hPa 0,0 l/m 1,0 km/h (0 Bft) O-NO 67 5 min 0,0 UV-I 11,9 C 21,9 C 4,2 km/h (1 Bft)
26.06.2014 12:10 15,2 C 23,7 C 15,9 C 21,3 C 21,3 C 6,1 C 78 % 90 % 100 % 1015,9 hPa 0,0 l/m 2,3 km/h (1 Bft) N 360 5 min 0,0 UV-I 11,4 C 21,3 C 4,5 km/h (1 Bft)
26.06.2014 12:15 15,3 C 23,7 C 15,7 C 21,5 C 21,5 C 6,2 C 78 % 90 % 100 % 1015,9 hPa 0,0 l/m 2,1 km/h (1 Bft) SO 135 5 min 0,0 UV-I 11,5 C 21,5 C 0,0 km/h (0 Bft)
26.06.2014 12:20 15,5 C 23,6 C 15,5 C 21,8 C 21,8 C 6,3 C 77 % 88 % 100 % 1016,2 hPa 0,0 l/m 2,1 km/h (1 Bft) O-NO 67 5 min 0,0 UV-I 11,5 C 21,8 C 6,1 km/h (2 Bft)
26.06.2014 12:25 15,6 C 23,6 C 15,6 C 21,7 C 21,7 C 6,1 C 78 % 88 % 100 % 1016,2 hPa 0,0 l/m 2,4 km/h (1 Bft) NO 45 5 min 0,0 UV-I 11,8 C 21,7 C 7,2 km/h (2 Bft)
26.06.2014 12:30 15,9 C 23,6 C 15,6 C 22,8 C 22,8 C 6,9 C 76 % 86 % 100 % 1016,2 hPa 0,0 l/m 2,6 km/h (1 Bft) W 270 5 min 0,0 UV-I 11,7 C 22,8 C 2,7 km/h (1 Bft)
26.06.2014 12:35 16,0 C 23,6 C 15,7 C 22,6 C 22,6 C 6,6 C 77 % 87 % 100 % 1016,2 hPa 0,0 l/m 2,9 km/h (1 Bft) N-NW 337 5 min 0,0 UV-I 12,0 C 22,6 C 5,8 km/h (2 Bft)
26.06.2014 12:41 16,3 C 23,6 C 15,6 C 21,3 C 21,3 C 5,0 C 76 % 87 % 100 % 1016,2 hPa 0,0 l/m 1,0 km/h (0 Bft) N 0 6 min 0,0 UV-I 12,1 C 21,3 C 2,7 km/h (1 Bft)
26.06.2014 13:01 16,6 C 23,6 C 16,3 C 21,9 C 21,9 C 5,3 C 74 % 87 % 100 % 1015,4 hPa 0,0 l/m 1,3 km/h (1 Bft) NW 315 20 min 0,0 UV-I 11,9 C 21,9 C 0,0 km/h (0 Bft)
26.06.2014 13:05 16,6 C 23,6 C 16,3 C 21,9 C 21,9 C 5,3 C 74 % 87 % 100 % 1015,4 hPa 0,0 l/m 1,3 km/h (1 Bft) NW 315 4 min 0,0 UV-I 11,9 C 21,9 C 0,0 km/h (0 Bft)
26.06.2014 13:10 17,2 C 23,7 C 16,8 C 24,4 C 24,4 C 7,2 C 74 % 87 % 100 % 1015,4 hPa 0,0 l/m 1,0 km/h (0 Bft) N-NO 22 5 min 0,0 UV-I 12,5 C 24,4 C 2,3 km/h (1 Bft)
26.06.2014 13:15 17,5 C 23,7 C 16,8 C 24,5 C 24,5 C 7,0 C 71 % 84 % 100 % 1015,4 hPa 0,0 l/m 1,4 km/h (1 Bft) N-NW 337 5 min 0,0 UV-I 12,2 C 24,5 C 2,4 km/h (1 Bft)
26.06.2014 13:20 17,5 C 23,7 C 16,7 C 23,4 C 23,4 C 5,9 C 73 % 86 % 100 % 1015,6 hPa 0,0 l/m 1,0 km/h (0 Bft) O-NO 67 5 min 0,0 UV-I 12,6 C 23,4 C 0,0 km/h (0 Bft)
26.06.2014 13:25 17,2 C 23,7 C 16,7 C 22,4 C 22,4 C 5,2 C 69 % 82 % 100 % 1015,6 hPa 0,0 l/m 1,8 km/h (1 Bft) N-NO 22 5 min 0,0 UV-I 11,5 C 22,4 C 4,3 km/h (1 Bft)
26.06.2014 13:30 16,9 C 23,7 C 16,7 C 21,2 C 21,2 C 4,3 C 71 % 84 % 100 % 1015,6 hPa 0,0 l/m 2,6 km/h (1 Bft) O-SO 112 5 min 0,0 UV-I 11,6 C 21,2 C 0,0 km/h (0 Bft)
26.06.2014 13:35 16,9 C 23,7 C 16,8 C 21,1 C 21,1 C 4,2 C 71 % 83 % 100 % 1015,6 hPa 0,0 l/m 2,3 km/h (1 Bft) O 90 5 min 0,0 UV-I 11,6 C 21,1 C 3,1 km/h (1 Bft)
26.06.2014 13:40 17,2 C 23,7 C 17,2 C 21,8 C 21,8 C 4,6 C 71 % 83 % 100 % 1015,3 hPa 0,0 l/m 2,6 km/h (1 Bft) O-SO 112 5 min 0,0 UV-I 11,9 C 21,8 C 3,1 km/h (1 Bft)
26.06.2014 13:45 17,5 C 23,7 C 17,6 C 22,6 C 22,6 C 5,1 C 70 % 83 % 100 % 1015,3 hPa 0,0 l/m 2,7 km/h (1 Bft) O-SO 112 5 min 0,0 UV-I 12,0 C 22,6 C 4,0 km/h (1 Bft)
26.06.2014 13:50 17,2 C 23,7 C 17,5 C 22,8 C 22,8 C 5,6 C 69 % 82 % 100 % 1015,3 hPa 0,0 l/m 2,6 km/h (1 Bft) SO 135 5 min 0,0 UV-I 11,5 C 22,8 C 7,6 km/h (2 Bft)
26.06.2014 13:55 17,5 C 23,7 C 17,7 C 23,3 C 23,3 C 5,8 C 69 % 83 % 100 % 1015,3 hPa 0,0 l/m 2,3 km/h (1 Bft) N 360 5 min 0,0 UV-I 11,7 C 23,3 C 0,0 km/h (0 Bft)
26.06.2014 14:00 17,6 C 23,7 C 17,7 C 23,0 C 23,0 C 5,4 C 66 % 82 % 100 % 1015,2 hPa 0,0 l/m 2,4 km/h (1 Bft) NO 45 5 min 0,0 UV-I 11,2 C 23,0 C 4,0 km/h (1 Bft)
26.06.2014 14:05 17,6 C 23,7 C 17,9 C 22,8 C 22,8 C 5,2 C 66 % 80 % 100 % 1015,2 hPa 0,0 l/m 3,2 km/h (1 Bft) O-NO 67 5 min 0,0 UV-I 11,2 C 22,8 C 3,7 km/h (1 Bft)
26.06.2014 14:10 17,9 C 23,8 C 18,0 C 23,5 C 23,5 C 5,6 C 67 % 81 % 100 % 1015,2 hPa 0,0 l/m 2,3 km/h (1 Bft) NW 315 5 min 0,0 UV-I 11,7 C 23,5 C 5,5 km/h (1 Bft)
26.06.2014 14:15 18,1 C 23,8 C 18,1 C 24,1 C 24,1 C 6,0 C 66 % 80 % 100 % 1015,2 hPa 0,0 l/m 2,1 km/h (1 Bft) O-NO 67 5 min 0,0 UV-I 11,6 C 24,1 C 4,2 km/h (1 Bft)
26.06.2014 14:20 18,0 C 23,8 C 18,1 C 24,2 C 24,2 C 6,2 C 63 % 78 % 100 % 1015,1 hPa 0,0 l/m 3,1 km/h (1 Bft) NW 315 5 min 0,0 UV-I 10,8 C 24,2 C 5,3 km/h (1 Bft)
26.06.2014 14:25 18,1 C 23,8 C 18,0 C 24,3 C 24,3 C 6,2 C 62 % 75 % 100 % 1015,1 hPa 0,0 l/m 3,4 km/h (1 Bft) NW 315 5 min 0,0 UV-I 10,7 C 24,3 C 4,7 km/h (1 Bft)
26.06.2014 14:30 18,0 C 23,8 C 18,0 C 24,1 C 24,1 C 6,1 C 64 % 77 % 100 % 1015,1 hPa 0,0 l/m 2,3 km/h (1 Bft) S-SO 157 5 min 0,0 UV-I 11,1 C 24,1 C 1,9 km/h (1 Bft)
26.06.2014 14:35 18,3 C 23,8 C 18,2 C 24,8 C 24,8 C 6,5 C 64 % 76 % 100 % 1015,1 hPa 0,0 l/m 2,4 km/h (1 Bft) SO 135 5 min 0,0 UV-I 11,4 C 24,8 C 1,6 km/h (1 Bft)
26.06.2014 14:40 18,7 C 23,8 C 18,5 C 25,2 C 25,2 C 6,5 C 64 % 76 % 100 % 1015,1 hPa 0,0 l/m 2,4 km/h (1 Bft) O-NO 67 5 min 0,0 UV-I 11,7 C 25,2 C 10,0 km/h (2 Bft)
26.06.2014 14:45 18,6 C 23,8 C 18,2 C 24,6 C 24,6 C 6,0 C 61 % 72 % 100 % 1015,1 hPa 0,0 l/m 2,6 km/h (1 Bft) NW 315 5 min 0,0 UV-I 10,9 C 24,6 C 0,0 km/h (0 Bft)
26.06.2014 14:50 18,4 C 23,8 C 17,8 C 22,8 C 22,8 C 4,4 C 61 % 75 % 100 % 1015,1 hPa 0,0 l/m 2,3 km/h (1 Bft) O-SO 112 5 min 0,0 UV-I 10,7 C 22,8 C 4,5 km/h (1 Bft)
26.06.2014 14:55 18,2 C 23,8 C 17,6 C 21,7 C 21,7 C 3,5 C 61 % 73 % 92 % 1015,1 hPa 0,0 l/m 2,4 km/h (1 Bft) O-SO 112 5 min 0,0 UV-I 10,6 C 21,7 C 3,4 km/h (1 Bft)
26.06.2014 15:00 18,2 C 23,8 C 17,8 C 22,2 C 22,2 C 4,0 C 61 % 73 % 100 % 1014,8 hPa 0,0 l/m 3,5 km/h (1 Bft) O-NO 67 5 min 0,0 UV-I 10,6 C 22,2 C 3,9 km/h (1 Bft)
26.06.2014 15:05 18,3 C 23,8 C 17,9 C 22,3 C 22,3 C 4,0 C 62 % 74 % 100 % 1014,8 hPa 0,0 l/m 3,1 km/h (1 Bft) O 90 5 min 0,0 UV-I 10,9 C 22,3 C 0,0 km/h (0 Bft)
26.06.2014 15:10 18,4 C 23,8 C 17,9 C 22,4 C 22,4 C 4,0 C 62 % 76 % 100 % 1014,8 hPa 0,0 l/m 1,1 km/h (1 Bft) S-SO 157 5 min 0,0 UV-I 11,0 C 22,4 C 0,0 km/h (0 Bft)
26.06.2014 15:15 18,7 C 23,8 C 18,0 C 22,5 C 22,5 C 3,8 C 63 % 77 % 100 % 1014,8 hPa 0,0 l/m 0,3 km/h (0 Bft) NO 45 5 min 0,0 UV-I 11,5 C 22,5 C 0,0 km/h (0 Bft)
26.06.2014 15:20 18,9 C 23,8 C 18,0 C 22,4 C 22,4 C 3,5 C 62 % 74 % 92 % 1014,7 hPa 0,0 l/m 0,3 km/h (0 Bft) SO 135 5 min 0,0 UV-I 11,5 C 22,4 C 0,0 km/h (0 Bft)
26.06.2014 15:25 18,9 C 23,8 C 18,1 C 22,5 C 22,5 C 3,6 C 62 % 75 % 95 % 1014,7 hPa 0,0 l/m 0,3 km/h (0 Bft) SO 135 5 min 0,0 UV-I 11,5 C 22,5 C 0,0 km/h (0 Bft)
26.06.2014 15:30 18,9 C 23,8 C 18,0 C 22,4 C 22,4 C 3,5 C 62 % 74 % 92 % 1014,7 hPa 0,0 l/m 0,2 km/h (0 Bft) S 180 5 min 0,0 UV-I 11,5 C 22,4 C 0,0 km/h (0 Bft)
26.06.2014 15:35 18,9 C 23,8 C 17,9 C 22,0 C 22,0 C 3,1 C 62 % 75 % 82 % 1014,7 hPa 0,0 l/m 0,0 km/h (0 Bft) NO 45 0 min 0,0 UV-I 11,5 C 22,0 C 0,0 km/h (0 Bft)
26.06.2014 15:40 19,1 C 23,8 C 17,9 C 21,4 C 21,4 C 2,3 C 63 % 74 % 61 % 1015,4 hPa 0,0 l/m 0,0 km/h (0 Bft) O-SO 112 0 min 0,0 UV-I 11,9 C 21,4 C 0,0 km/h (0 Bft)
26.06.2014 15:45 19,0 C 23,8 C 17,7 C 21,2 C 21,2 C 2,2 C 62 % 73 % 58 % 1015,4 hPa 0,0 l/m 0,0 km/h (0 Bft) S-SW 202 0 min 0,0 UV-I 11,6 C 21,2 C 0,0 km/h (0 Bft)
26.06.2014 15:50 18,9 C 23,9 C 17,6 C 20,8 C 20,8 C 1,9 C 62 % 73 % 50 % 1015,4 hPa 0,0 l/m 0,0 km/h (0 Bft) SW 225 0 min 0,0 UV-I 11,5 C 20,8 C 0,0 km/h (0 Bft)
26.06.2014 15:55 18,9 C 23,9 C 17,6 C 20,8 C 20,8 C 1,9 C 62 % 73 % 50 % 1015,4 hPa 0,0 l/m 0,0 km/h (0 Bft) SO 135 0 min 0,0 UV-I 11,5 C 20,8 C 0,0 km/h (0 Bft)
26.06.2014 16:00 19,1 C 23,9 C 17,6 C 20,9 C 20,9 C 1,8 C 62 % 73 % 47 % 1014,9 hPa 0,0 l/m 0,3 km/h (0 Bft) O 90 0 min 0,0 UV-I 11,6 C 20,9 C 0,0 km/h (0 Bft)
26.06.2014 16:05 19,1 C 23,9 C 17,7 C 21,0 C 21,0 C 1,9 C 63 % 73 % 50 % 1014,9 hPa 0,0 l/m 0,3 km/h (0 Bft) N-NW 337 0 min 0,0 UV-I 11,9 C 21,0 C 0,0 km/h (0 Bft)
26.06.2014 16:10 19,2 C 23,9 C 17,9 C 21,2 C 21,2 C 2,0 C 62 % 72 % 53 % 1014,9 hPa 0,0 l/m 0,0 km/h (0 Bft) W-SW 247 0 min 0,0 UV-I 11,7 C 21,2 C 0,0 km/h (0 Bft)
26.06.2014 16:15 19,2 C 23,9 C 17,9 C 21,2 C 21,2 C 2,0 C 62 % 71 % 53 % 1014,9 hPa 0,0 l/m 0,2 km/h (0 Bft) NW 315 0 min 0,0 UV-I 11,7 C 21,2 C 0,0 km/h (0 Bft)
26.06.2014 16:20 19,1 C 23,9 C 17,6 C 20,6 C 20,6 C 1,5 C 60 % 71 % 39 % 1014,9 hPa 0,0 l/m 0,8 km/h (0 Bft) W-SW 247 0 min 0,0 UV-I 11,1 C 20,6 C 2,6 km/h (1 Bft)
26.06.2014 16:25 18,7 C 24,0 C 17,5 C 19,9 C 19,9 C 1,2 C 61 % 71 % 32 % 1014,9 hPa 0,0 l/m 0,8 km/h (0 Bft) NW 315 0 min 0,0 UV-I 11,0 C 19,9 C 0,0 km/h (0 Bft)
26.06.2014 16:30 18,5 C 24,0 C 17,1 C 18,4 C 18,1 C 0,0 C 64 % 72 % 0 % 1014,9 hPa 0,0 l/m 0,2 km/h (0 Bft) O-NO 67 0 min 0,0 UV-I 11,6 C 18,1 C 0,0 km/h (0 Bft)
26.06.2014 16:35 18,3 C 24,0 C 17,0 C 17,9 C 17,1 C 0,0 C 65 % 73 % 0 % 1014,9 hPa 0,0 l/m 0,2 km/h (0 Bft) NO 45 0 min 0,0 UV-I 11,6 C 17,1 C 0,0 km/h (0 Bft)
26.06.2014 16:40 18,1 C 24,1 C 16,7 C 17,5 C 16,3 C 0,0 C 67 % 75 % 0 % 1015,1 hPa 0,0 l/m 0,0 km/h (0 Bft) O-SO 112 0 min 0,0 UV-I 11,9 C 16,3 C 0,0 km/h (0 Bft)
26.06.2014 16:45 17,7 C 24,1 C 16,6 C 17,2 C 16,1 C 0,0 C 68 % 75 % 0 % 1015,1 hPa 0,0 l/m 0,3 km/h (0 Bft) NO 45 0 min 0,0 UV-I 11,7 C 16,1 C 1,8 km/h (1 Bft)
26.06.2014 16:50 16,8 C 24,1 C 16,3 C 16,4 C 15,7 C 0,0 C 69 % 77 % 0 % 1015,1 hPa 0,0 l/m 1,6 km/h (1 Bft) NO 45 0 min 0,0 UV-I 11,1 C 15,7 C 4,2 km/h (1 Bft)
26.06.2014 16:55 16,5 C 24,1 C 16,3 C 16,3 C 15,8 C 0,0 C 71 % 77 % 0 % 1015,1 hPa 0,0 l/m 2,3 km/h (1 Bft) SO 135 0 min 0,0 UV-I 11,2 C 15,8 C 1,9 km/h (1 Bft)
26.06.2014 17:00 16,4 C 24,1 C 16,7 C 17,1 C 17,1 C 0,7 C 74 % 78 % 18 % 1014,9 hPa 0,0 l/m 2,9 km/h (1 Bft) O-NO 67 0 min 0,0 UV-I 11,8 C 17,1 C 4,7 km/h (1 Bft)
26.06.2014 17:05 16,4 C 24,1 C 16,7 C 18,6 C 18,6 C 2,2 C 72 % 77 % 58 % 1014,9 hPa 0,0 l/m 3,4 km/h (1 Bft) NO 45 0 min 0,0 UV-I 11,3 C 18,6 C 5,5 km/h (1 Bft)
26.06.2014 17:10 16,3 C 24,1 C 16,9 C 18,8 C 18,8 C 2,5 C 71 % 76 % 66 % 1014,9 hPa 0,0 l/m 3,5 km/h (1 Bft) W 270 0 min 0,0 UV-I 11,0 C 18,8 C 2,9 km/h (1 Bft)
26.06.2014 17:15 16,3 C 24,1 C 16,8 C 19,6 C 19,6 C 3,3 C 70 % 75 % 87 % 1014,9 hPa 0,0 l/m 3,5 km/h (1 Bft) O-NO 67 5 min 0,0 UV-I 10,8 C 19,6 C 5,0 km/h (1 Bft)
26.06.2014 17:20 16,4 C 24,1 C 17,1 C 20,4 C 20,4 C 4,0 C 70 % 73 % 100 % 1014,8 hPa 0,0 l/m 2,7 km/h (1 Bft) NO 45 5 min 0,0 UV-I 10,9 C 20,4 C 2,7 km/h (1 Bft)
26.06.2014 17:25 16,6 C 24,1 C 16,9 C 20,4 C 20,4 C 3,8 C 68 % 72 % 100 % 1014,8 hPa 0,0 l/m 1,9 km/h (1 Bft) W-NW 292 5 min 0,0 UV-I 10,7 C 20,4 C 0,0 km/h (0 Bft)
26.06.2014 17:30 16,7 C 24,1 C 16,9 C 20,2 C 20,2 C 3,5 C 65 % 70 % 92 % 1014,8 hPa 0,0 l/m 1,0 km/h (0 Bft) N-NW 337 5 min 0,0 UV-I 10,1 C 20,2 C 2,7 km/h (1 Bft)
26.06.2014 17:35 16,6 C 24,1 C 16,7 C 19,9 C 19,9 C 3,3 C 66 % 70 % 87 % 1014,8 hPa 0,0 l/m 0,6 km/h (0 Bft) W 270 5 min 0,0 UV-I 10,2 C 19,9 C 0,0 km/h (0 Bft)
26.06.2014 17:40 16,8 C 24,1 C 16,8 C 20,1 C 20,1 C 3,3 C 67 % 72 % 87 % 1014,6 hPa 0,0 l/m 0,5 km/h (0 Bft) SW 225 5 min 0,0 UV-I 10,6 C 20,1 C 0,0 km/h (0 Bft)
26.06.2014 17:45 16,9 C 24,2 C 16,8 C 20,1 C 20,1 C 3,2 C 67 % 72 % 84 % 1014,6 hPa 0,0 l/m 0,5 km/h (0 Bft) O 90 0 min 0,0 UV-I 10,7 C 20,1 C 2,3 km/h (1 Bft)
26.06.2014 17:50 17,1 C 24,2 C 16,8 C 20,0 C 20,0 C 2,9 C 68 % 72 % 76 % 1014,6 hPa 0,0 l/m 0,5 km/h (0 Bft) N-NW 337 0 min 0,0 UV-I 11,1 C 20,0 C 1,6 km/h (1 Bft)
26.06.2014 17:55 17,1 C 24,2 C 16,9 C 19,9 C 19,9 C 2,8 C 68 % 72 % 74 % 1014,6 hPa 0,0 l/m 1,0 km/h (0 Bft) W-SW 247 0 min 0,0 UV-I 11,1 C 19,9 C 5,0 km/h (1 Bft)
26.06.2014 18:00 17,1 C 24,2 C 16,7 C 19,7 C 19,7 C 2,6 C 67 % 71 % 68 % 1014,8 hPa 0,0 l/m 1,4 km/h (1 Bft) NW 315 0 min 0,0 UV-I 10,9 C 19,7 C 2,6 km/h (1 Bft)
26.06.2014 18:05 17,2 C 24,2 C 16,8 C 19,9 C 19,9 C 2,7 C 68 % 72 % 71 % 1014,8 hPa 0,0 l/m 1,3 km/h (1 Bft) N-NO 22 0 min 0,0 UV-I 11,2 C 19,9 C 2,6 km/h (1 Bft)
26.06.2014 18:10 17,1 C 24,2 C 17,1 C 21,0 C 21,0 C 3,9 C 69 % 72 % 100 % 1014,8 hPa 0,0 l/m 2,7 km/h (1 Bft) W 270 5 min 0,0 UV-I 11,4 C 21,0 C 5,3 km/h (1 Bft)
26.06.2014 18:15 17,1 C 24,2 C 16,8 C 20,7 C 20,7 C 3,6 C 70 % 73 % 95 % 1014,8 hPa 0,0 l/m 3,2 km/h (1 Bft) W 270 5 min 0,0 UV-I 11,6 C 20,7 C 1,8 km/h (1 Bft)
26.06.2014 18:20 16,8 C 24,2 C 16,5 C 19,9 C 19,9 C 3,1 C 69 % 72 % 82 % 1015,1 hPa 0,0 l/m 2,3 km/h (1 Bft) O-NO 67 0 min 0,0 UV-I 11,1 C 19,9 C 3,4 km/h (1 Bft)
26.06.2014 18:25 16,6 C 24,2 C 16,4 C 19,4 C 19,4 C 2,8 C 70 % 73 % 74 % 1015,1 hPa 0,0 l/m 2,4 km/h (1 Bft) O-SO 112 0 min 0,0 UV-I 11,1 C 19,4 C 5,1 km/h (1 Bft)
26.06.2014 18:30 16,4 C 24,2 C 16,3 C 19,3 C 19,3 C 2,9 C 70 % 73 % 76 % 1015,1 hPa 0,0 l/m 3,2 km/h (1 Bft) O-SO 112 0 min 0,0 UV-I 10,9 C 19,3 C 3,9 km/h (1 Bft)
26.06.2014 18:35 16,2 C 24,2 C 16,3 C 19,1 C 19,1 C 2,9 C 71 % 74 % 76 % 1015,1 hPa 0,0 l/m 3,1 km/h (1 Bft) N-NW 337 0 min 0,0 UV-I 10,9 C 19,1 C 2,1 km/h (1 Bft)
26.06.2014 18:41 16,0 C 24,2 C 16,1 C 18,1 C 18,1 C 2,1 C 73 % 76 % 55 % 1015,4 hPa 0,0 l/m 2,6 km/h (1 Bft) N 0 0 min 0,0 UV-I 11,2 C 18,1 C 2,1 km/h (1 Bft)
26.06.2014 19:01 15,2 C 24,2 C 15,2 C 15,9 C 15,9 C 0,7 C 73 % 76 % 18 % 1015,5 hPa 0,0 l/m 3,9 km/h (1 Bft) O 90 0 min 0,0 UV-I 10,4 C 15,9 C 2,9 km/h (1 Bft)
26.06.2014 19:02 15,2 C 24,2 C 15,2 C 15,9 C 15,9 C 0,7 C 73 % 76 % 18 % 1015,5 hPa 0,0 l/m 3,9 km/h (1 Bft) O 90 0 min 0,0 UV-I 10,4 C 15,9 C 2,9 km/h (1 Bft)
26.06.2014 19:05 15,2 C 24,2 C 15,2 C 15,9 C 15,9 C 0,7 C 73 % 76 % 18 % 1015,5 hPa 0,0 l/m 3,9 km/h (1 Bft) O 90 0 min 0,0 UV-I 10,4 C 15,9 C 2,9 km/h (1 Bft)
26.06.2014 19:10 15,1 C 24,2 C 14,9 C 15,4 C 15,4 C 0,3 C 74 % 77 % 8 % 1015,5 hPa 0,0 l/m 3,1 km/h (1 Bft) O-NO 67 0 min 0,0 UV-I 10,5 C 15,4 C 3,4 km/h (1 Bft)
26.06.2014 19:15 14,8 C 24,2 C 14,8 C 15,1 C 15,1 C 0,3 C 75 % 78 % 8 % 1015,5 hPa 0,0 l/m 3,4 km/h (1 Bft) O-NO 67 0 min 0,0 UV-I 10,4 C 15,1 C 6,8 km/h (2 Bft)
26.06.2014 19:20 14,7 C 24,2 C 14,6 C 14,9 C 14,9 C 0,2 C 75 % 77 % 5 % 1015,6 hPa 0,0 l/m 3,4 km/h (1 Bft) NO 45 0 min 0,0 UV-I 10,3 C 14,9 C 2,3 km/h (1 Bft)
26.06.2014 19:25 14,5 C 24,3 C 14,6 C 14,7 C 14,7 C 0,2 C 75 % 78 % 5 % 1015,6 hPa 0,0 l/m 2,7 km/h (1 Bft) O-NO 67 0 min 0,0 UV-I 10,1 C 14,7 C 4,2 km/h (1 Bft)
26.06.2014 19:30 14,5 C 24,3 C 14,4 C 14,7 C 14,7 C 0,2 C 75 % 77 % 5 % 1015,6 hPa 0,0 l/m 2,7 km/h (1 Bft) O-SO 112 0 min 0,0 UV-I 10,1 C 14,7 C 4,0 km/h (1 Bft)
26.06.2014 19:35 14,3 C 24,3 C 14,5 C 14,7 C 14,7 C 0,4 C 74 % 77 % 11 % 1015,6 hPa 0,0 l/m 3,2 km/h (1 Bft) O-NO 67 0 min 0,0 UV-I 9,7 C 14,7 C 3,2 km/h (1 Bft)
26.06.2014 19:40 14,3 C 24,3 C 14,5 C 15,1 C 15,1 C 0,8 C 75 % 77 % 21 % 1015,4 hPa 0,0 l/m 2,6 km/h (1 Bft) O-NO 67 0 min 0,0 UV-I 9,9 C 15,1 C 3,5 km/h (1 Bft)
26.06.2014 19:45 14,3 C 24,3 C 14,5 C 15,8 C 15,8 C 1,5 C 75 % 77 % 39 % 1015,4 hPa 0,0 l/m 2,7 km/h (1 Bft) O 90 0 min 0,0 UV-I 9,9 C 15,8 C 6,9 km/h (2 Bft)
26.06.2014 19:50 14,2 C 24,3 C 14,4 C 16,1 C 16,1 C 1,9 C 76 % 77 % 50 % 1015,4 hPa 0,0 l/m 2,7 km/h (1 Bft) O-NO 67 0 min 0,0 UV-I 10,0 C 16,1 C 3,1 km/h (1 Bft)
26.06.2014 19:55 14,2 C 24,3 C 14,3 C 15,7 C 15,7 C 1,5 C 76 % 78 % 39 % 1015,4 hPa 0,0 l/m 2,4 km/h (1 Bft) W-NW 292 0 min 0,0 UV-I 10,0 C 15,7 C 1,8 km/h (1 Bft)
26.06.2014 20:00 14,1 C 24,3 C 14,3 C 15,0 C 15,0 C 0,9 C 76 % 79 % 24 % 1015,5 hPa 0,0 l/m 2,7 km/h (1 Bft) O-SO 112 0 min 0,0 UV-I 9,9 C 15,0 C 4,8 km/h (1 Bft)
26.06.2014 20:05 14,0 C 24,3 C 14,0 C 14,7 C 14,7 C 0,7 C 76 % 79 % 18 % 1015,5 hPa 0,0 l/m 2,9 km/h (1 Bft) O-NO 67 0 min 0,0 UV-I 9,8 C 14,7 C 3,2 km/h (1 Bft)
26.06.2014 20:10 13,9 C 24,3 C 13,9 C 14,1 C 14,1 C 0,2 C 77 % 79 % 5 % 1015,5 hPa 0,0 l/m 2,6 km/h (1 Bft) O-SO 112 0 min 0,0 UV-I 9,9 C 14,1 C 3,1 km/h (1 Bft)
26.06.2014 20:15 13,8 C 24,3 C 13,8 C 13,9 C 13,9 C 0,1 C 77 % 79 % 3 % 1015,5 hPa 0,0 l/m 2,4 km/h (1 Bft) O-NO 67 0 min 0,0 UV-I 9,8 C 13,9 C 2,7 km/h (1 Bft)
26.06.2014 20:20 13,8 C 24,3 C 13,9 C 13,8 C 13,7 C 0,0 C 77 % 80 % 0 % 1015,3 hPa 0,0 l/m 1,6 km/h (1 Bft) O-SO 112 0 min 0,0 UV-I 9,8 C 13,7 C 0,0 km/h (0 Bft)
26.06.2014 20:25 13,7 C 24,3 C 13,9 C 13,7 C 13,6 C 0,0 C 77 % 80 % 0 % 1015,3 hPa 0,0 l/m 0,5 km/h (0 Bft) O 90 0 min 0,0 UV-I 9,7 C 13,6 C 0,0 km/h (0 Bft)
26.06.2014 20:30 13,7 C 24,4 C 13,6 C 13,6 C 13,4 C 0,0 C 78 % 80 % 0 % 1015,3 hPa 0,0 l/m 0,0 km/h (0 Bft) O 90 0 min 0,0 UV-I 9,9 C 13,4 C 0,0 km/h (0 Bft)
26.06.2014 20:35 13,7 C 24,4 C 13,6 C 13,6 C 13,3 C 0,0 C 78 % 81 % 0 % 1015,3 hPa 0,0 l/m 0,0 km/h (0 Bft) O 90 0 min 0,0 UV-I 9,9 C 13,3 C 0,0 km/h (0 Bft)
26.06.2014 20:40 13,7 C 24,3 C 13,7 C 13,6 C 13,4 C 0,0 C 78 % 81 % 0 % 1015,3 hPa 0,0 l/m 0,0 km/h (0 Bft) NW 315 0 min 0,0 UV-I 9,9 C 13,4 C 0,0 km/h (0 Bft)
26.06.2014 20:45 13,7 C 24,3 C 13,7 C 13,6 C 13,4 C 0,0 C 78 % 81 % 0 % 1015,3 hPa 0,0 l/m 0,0 km/h (0 Bft) W 270 0 min 0,0 UV-I 9,9 C 13,4 C 0,0 km/h (0 Bft)
26.06.2014 20:50 13,7 C 24,3 C 13,7 C 13,6 C 13,4 C 0,0 C 78 % 81 % 0 % 1015,3 hPa 0,0 l/m 0,2 km/h (0 Bft) O-NO 67 0 min 0,0 UV-I 9,9 C 13,4 C 3,1 km/h (1 Bft)
26.06.2014 20:55 13,6 C 24,4 C 13,7 C 13,5 C 13,4 C 0,0 C 78 % 81 % 0 % 1015,3 hPa 0,0 l/m 0,6 km/h (0 Bft) O-NO 67 0 min 0,0 UV-I 9,8 C 13,4 C 0,0 km/h (0 Bft)
26.06.2014 21:00 13,6 C 24,4 C 13,6 C 13,5 C 13,4 C 0,0 C 79 % 81 % 0 % 1015,4 hPa 0,0 l/m 0,6 km/h (0 Bft) N-NO 22 0 min 0,0 UV-I 10,0 C 13,4 C 0,0 km/h (0 Bft)
26.06.2014 21:05 13,6 C 24,4 C 13,6 C 13,6 C 13,5 C 0,0 C 79 % 82 % 0 % 1015,4 hPa 0,0 l/m 0,0 km/h (0 Bft) NO 45 0 min 0,0 UV-I 10,0 C 13,5 C 0,0 km/h (0 Bft)
26.06.2014 21:10 13,6 C 24,4 C 13,6 C 13,6 C 13,5 C 0,0 C 79 % 82 % 0 % 1015,4 hPa 0,0 l/m 0,0 km/h (0 Bft) NW 315 0 min 0,0 UV-I 10,0 C 13,5 C 0,0 km/h (0 Bft)
26.06.2014 21:15 13,7 C 24,3 C 13,6 C 13,6 C 13,4 C 0,0 C 80 % 82 % 0 % 1015,4 hPa 0,0 l/m 0,0 km/h (0 Bft) NW 315 0 min 0,0 UV-I 10,3 C 13,4 C 0,0 km/h (0 Bft)
26.06.2014 21:20 13,6 C 24,3 C 13,5 C 13,5 C 13,3 C 0,0 C 80 % 82 % 0 % 1015,4 hPa 0,0 l/m 0,0 km/h (0 Bft) NO 45 0 min 0,0 UV-I 10,2 C 13,3 C 0,0 km/h (0 Bft)
26.06.2014 21:25 13,6 C 24,4 C 13,5 C 13,5 C 13,3 C 0,0 C 80 % 82 % 0 % 1015,4 hPa 0,0 l/m 0,0 km/h (0 Bft) S-SO 157 0 min 0,0 UV-I 10,2 C 13,3 C 0,0 km/h (0 Bft)
26.06.2014 21:30 13,5 C 24,3 C 13,5 C 13,3 C 12,9 C 0,0 C 80 % 82 % 0 % 1015,4 hPa 0,0 l/m 0,0 km/h (0 Bft) O-NO 67 0 min 0,0 UV-I 10,1 C 12,9 C 0,0 km/h (0 Bft)
26.06.2014 21:35 13,4 C 24,4 C 13,3 C 13,2 C 12,7 C 0,0 C 80 % 82 % 0 % 1015,4 hPa 0,0 l/m 0,0 km/h (0 Bft) NW 315 0 min 0,0 UV-I 10,0 C 12,7 C 0,0 km/h (0 Bft)
26.06.2014 21:40 13,3 C 24,4 C 13,2 C 13,0 C 12,4 C 0,0 C 80 % 83 % 0 % 1015,8 hPa 0,0 l/m 0,0 km/h (0 Bft) O 90 0 min 0,0 UV-I 9,9 C 12,4 C 0,0 km/h (0 Bft)
26.06.2014 21:45 13,3 C 24,4 C 13,1 C 12,9 C 12,2 C 0,0 C 80 % 83 % 0 % 1015,8 hPa 0,0 l/m 0,0 km/h (0 Bft) O 90 0 min 0,0 UV-I 9,9 C 12,2 C 0,0 km/h (0 Bft)
26.06.2014 21:50 13,1 C 24,3 C 12,9 C 12,7 C 11,8 C 0,0 C 81 % 83 % 0 % 1015,8 hPa 0,0 l/m 0,0 km/h (0 Bft) O 90 0 min 0,0 UV-I 9,9 C 11,8 C 0,0 km/h (0 Bft)
26.06.2014 21:55 13,1 C 24,4 C 12,8 C 12,6 C 11,6 C 0,0 C 81 % 83 % 0 % 1015,8 hPa 0,0 l/m 0,0 km/h (0 Bft) N-NO 22 0 min 0,0 UV-I 9,9 C 11,6 C 0,0 km/h (0 Bft)
26.06.2014 22:00 12,9 C 24,4 C 12,6 C 12,4 C 11,4 C 0,0 C 81 % 83 % 0 % 1015,8 hPa 0,0 l/m 0,0 km/h (0 Bft) N-NO 22 0 min 0,0 UV-I 9,7 C 11,4 C 0,0 km/h (0 Bft)
26.06.2014 22:05 12,8 C 24,4 C 12,7 C 12,3 C 11,3 C 0,0 C 81 % 83 % 0 % 1015,8 hPa 0,0 l/m 0,0 km/h (0 Bft) O-NO 67 0 min 0,0 UV-I 9,6 C 11,3 C 0,0 km/h (0 Bft)
26.06.2014 22:10 12,6 C 24,3 C 12,4 C 12,1 C 11,0 C 0,0 C 81 % 84 % 0 % 1015,8 hPa 0,0 l/m 0,0 km/h (0 Bft) O-NO 67 0 min 0,0 UV-I 9,4 C 11,0 C 0,0 km/h (0 Bft)
26.06.2014 22:15 12,5 C 24,4 C 12,4 C 11,9 C 10,8 C 0,0 C 82 % 84 % 0 % 1015,8 hPa 0,0 l/m 0,0 km/h (0 Bft) O-NO 67 0 min 0,0 UV-I 9,5 C 10,8 C 0,0 km/h (0 Bft)
26.06.2014 22:20 12,3 C 24,4 C 12,3 C 11,7 C 10,6 C 0,0 C 82 % 84 % 0 % 1016,3 hPa 0,0 l/m 0,0 km/h (0 Bft) O-NO 67 0 min 0,0 UV-I 9,3 C 10,6 C 0,0 km/h (0 Bft)
26.06.2014 22:25 12,3 C 24,4 C 12,1 C 11,7 C 10,5 C 0,0 C 82 % 84 % 0 % 1016,3 hPa 0,0 l/m 0,0 km/h (0 Bft) O-NO 67 0 min 0,0 UV-I 9,3 C 10,5 C 0,0 km/h (0 Bft)
26.06.2014 22:30 12,0 C 24,4 C 12,0 C 11,4 C 10,3 C 0,0 C 83 % 84 % 0 % 1016,3 hPa 0,0 l/m 0,0 km/h (0 Bft) N-NW 337 0 min 0,0 UV-I 9,2 C 10,3 C 0,0 km/h (0 Bft)
26.06.2014 22:35 11,9 C 24,4 C 11,9 C 11,3 C 10,2 C 0,0 C 83 % 85 % 0 % 1016,3 hPa 0,0 l/m 0,0 km/h (0 Bft) SW 225 0 min 0,0 UV-I 9,1 C 10,2 C 0,0 km/h (0 Bft)
26.06.2014 22:40 11,8 C 24,5 C 11,9 C 11,2 C 10,1 C 0,0 C 83 % 85 % 0 % 1016,3 hPa 0,0 l/m 0,0 km/h (0 Bft) W 270 0 min 0,0 UV-I 9,0 C 10,1 C 0,0 km/h (0 Bft)
26.06.2014 22:45 11,6 C 24,5 C 11,7 C 11,1 C 10,0 C 0,0 C 84 % 85 % 0 % 1016,3 hPa 0,0 l/m 0,0 km/h (0 Bft) O-NO 67 0 min 0,0 UV-I 9,0 C 10,0 C 0,0 km/h (0 Bft)
26.06.2014 22:50 11,5 C 24,5 C 11,6 C 11,0 C 10,0 C 0,0 C 84 % 85 % 0 % 1016,3 hPa 0,0 l/m 0,0 km/h (0 Bft) O-NO 67 0 min 0,0 UV-I 8,9 C 10,0 C 0,0 km/h (0 Bft)
26.06.2014 22:55 11,3 C 24,5 C 11,6 C 10,9 C 10,0 C 0,0 C 84 % 86 % 0 % 1016,3 hPa 0,0 l/m 0,0 km/h (0 Bft) O-NO 67 0 min 0,0 UV-I 8,7 C 10,0 C 0,0 km/h (0 Bft)
26.06.2014 23:00 11,1 C 24,5 C 11,4 C 10,7 C 9,9 C 0,0 C 84 % 86 % 0 % 1015,8 hPa 0,0 l/m 0,0 km/h (0 Bft) O-NO 67 0 min 0,0 UV-I 8,5 C 9,9 C 0,0 km/h (0 Bft)
26.06.2014 23:05 10,9 C 24,5 C 11,3 C 10,5 C 9,8 C 0,0 C 85 % 86 % 0 % 1015,8 hPa 0,0 l/m 0,0 km/h (0 Bft) NW 315 0 min 0,0 UV-I 8,5 C 9,8 C 0,0 km/h (0 Bft)
26.06.2014 23:10 10,8 C 24,5 C 11,3 C 10,4 C 9,6 C 0,0 C 85 % 86 % 0 % 1015,8 hPa 0,0 l/m 0,0 km/h (0 Bft) W-SW 247 0 min 0,0 UV-I 8,4 C 9,6 C 0,0 km/h (0 Bft)
26.06.2014 23:15 10,7 C 24,5 C 11,1 C 10,3 C 9,5 C 0,0 C 84 % 86 % 0 % 1015,8 hPa 0,0 l/m 0,0 km/h (0 Bft) S 180 0 min 0,0 UV-I 8,1 C 9,5 C 0,0 km/h (0 Bft)
26.06.2014 23:20 10,5 C 24,5 C 11,1 C 10,2 C 9,6 C 0,0 C 85 % 86 % 0 % 1015,7 hPa 0,0 l/m 0,0 km/h (0 Bft) O 90 0 min 0,0 UV-I 8,1 C 9,6 C 0,0 km/h (0 Bft)
26.06.2014 23:25 10,4 C 24,5 C 10,9 C 10,1 C 9,5 C 0,0 C 85 % 86 % 0 % 1015,7 hPa 0,0 l/m 0,0 km/h (0 Bft) O-NO 67 0 min 0,0 UV-I 8,0 C 9,5 C 0,0 km/h (0 Bft)
26.06.2014 23:30 10,2 C 24,5 C 10,9 C 9,9 C 9,4 C 0,0 C 85 % 86 % 0 % 1015,7 hPa 0,0 l/m 0,0 km/h (0 Bft) O-NO 67 0 min 0,0 UV-I 7,8 C 9,4 C 0,0 km/h (0 Bft)
26.06.2014 23:35 10,0 C 24,5 C 10,9 C 9,8 C 9,3 C 0,0 C 85 % 86 % 0 % 1015,7 hPa 0,0 l/m 0,0 km/h (0 Bft) N-NO 22 0 min 0,0 UV-I 7,6 C 9,3 C 0,0 km/h (0 Bft)
26.06.2014 23:40 10,0 C 24,5 C 10,7 C 9,7 C 9,1 C 0,0 C 85 % 86 % 0 % 1015,7 hPa 0,0 l/m 0,0 km/h (0 Bft) W 270 0 min 0,0 UV-I 7,6 C 9,1 C 0,0 km/h (0 Bft)
26.06.2014 23:45 9,9 C 24,5 C 10,6 C 9,6 C 9,0 C 0,0 C 85 % 87 % 0 % 1015,7 hPa 0,0 l/m 0,0 km/h (0 Bft) N-NO 22 0 min 0,0 UV-I 7,5 C 9,0 C 0,0 km/h (0 Bft)
26.06.2014 23:50 9,7 C 24,5 C 10,5 C 9,5 C 9,0 C 0,0 C 85 % 87 % 0 % 1015,7 hPa 0,0 l/m 0,0 km/h (0 Bft) O-NO 67 0 min 0,0 UV-I 7,3 C 9,0 C 0,0 km/h (0 Bft)
26.06.2014 23:55 9,6 C 24,5 C 10,4 C 9,4 C 9,1 C 0,0 C 86 % 87 % 0 % 1015,7 hPa 0,0 l/m 0,0 km/h (0 Bft) O-NO 67 0 min 0,0 UV-I 7,4 C 9,1 C 0,0 km/h (0 Bft)
_ Min-Zeit 04:55 11:40 05:00 04:55 04:55 03:45 16:20 17:30 00:00 00:00 - 00:00 - - - 00:00 04:55 04:55 00:00
Minimum _ 8,4 C 23,6 C 9,9 C 8,8 C 8,8 C 0,0 C 60 % 70 % 0 % 1014,3 hPa - 0,0 km/h (0 Bft) - - - 0,0 UV-I 6,9 C 8,8 C 0,0 km/h (0 Bft)
_ Max-Zeit 16:10 00:00 14:40 14:40 14:40 13:10 06:41 00:00 09:00 07:20 00:00 19:01 - - 13:01 00:00 13:20 14:40 14:40
Maximum _ 19,2 C 24,7 C 18,5 C 25,2 C 25,2 C 7,2 C 92 % 94 % 100 % 1016,8 hPa 0,0 l/m 3,9 km/h
O (1 Bft)
- - 20 min 0,0 UV-I 12,6 C 25,2 C 10,0 km/h
O-NO (2 Bft)
Durchschnitt _ 12,8 C 24,2 C 13,5 C 14,9 C 14,8 C 2,2 C 81 % 87 % 43 % 1015,5 hPa #0,0 l/m 0,8 km/h (0 Bft) O-NO - #7:50 h 0,0 UV-I 9,6 C 14,8 C 1,1 km/h (1 Bft)
2014 www.wetterstation-wechselburg.de